createdAt,value
2022-11-28T00:02:19.990Z,86
2022-11-28T00:05:47.009Z,86
2022-11-28T00:09:10.147Z,86
2022-11-28T00:12:35.351Z,86
2022-11-28T00:16:00.574Z,85
2022-11-28T00:19:25.861Z,85
2022-11-28T00:22:50.953Z,86
2022-11-28T00:26:16.158Z,85
2022-11-28T00:29:41.372Z,85
2022-11-28T00:33:06.580Z,85
2022-11-28T00:36:31.891Z,85
2022-11-28T00:39:56.982Z,85
2022-11-28T00:43:22.176Z,85
2022-11-28T00:46:47.388Z,85
2022-11-28T00:50:12.588Z,86
2022-11-28T00:53:37.910Z,86
2022-11-28T00:57:02.991Z,85
2022-11-28T01:00:28.182Z,86
2022-11-28T01:03:53.389Z,86
2022-11-28T01:07:18.643Z,86
2022-11-28T01:10:43.907Z,86
2022-11-28T01:14:09.012Z,85
2022-11-28T01:17:34.209Z,85
2022-11-28T01:20:59.398Z,85
2022-11-28T01:24:24.598Z,85
2022-11-28T01:27:49.926Z,85
2022-11-28T01:31:15.025Z,84
2022-11-28T01:34:40.410Z,85
2022-11-28T01:38:05.447Z,85
2022-11-28T01:41:30.632Z,85
2022-11-28T01:44:55.964Z,85
2022-11-28T01:48:21.054Z,85
2022-11-28T01:51:46.253Z,86
2022-11-28T01:55:11.459Z,86
2022-11-28T01:58:36.671Z,86
2022-11-28T02:02:07.883Z,86
2022-11-28T02:05:27.176Z,86
2022-11-28T02:08:52.281Z,86
2022-11-28T02:12:17.483Z,86
2022-11-28T02:15:42.686Z,86
2022-11-28T02:19:07.892Z,86
2022-11-28T02:22:33.225Z,86
2022-11-28T02:25:58.299Z,86
2022-11-28T02:29:23.507Z,86
2022-11-28T02:32:48.707Z,86
2022-11-28T02:36:13.949Z,86
2022-11-28T02:39:39.294Z,86
2022-11-28T02:43:04.415Z,87
2022-11-28T02:46:29.658Z,87
2022-11-28T02:49:54.875Z,87
2022-11-28T02:53:20.116Z,88
2022-11-28T02:56:45.435Z,89
2022-11-28T03:00:13.851Z,89
2022-11-28T03:03:35.750Z,89
2022-11-28T03:07:00.944Z,89
2022-11-28T03:10:26.159Z,89
2022-11-28T03:13:51.513Z,89
2022-11-28T03:17:16.629Z,88
2022-11-28T03:20:41.829Z,87
2022-11-28T03:24:07.025Z,87
2022-11-28T03:27:32.252Z,87
2022-11-28T03:30:57.564Z,87
2022-11-28T03:34:22.641Z,87
2022-11-28T03:37:47.846Z,86
2022-11-28T03:41:13.057Z,86
2022-11-28T03:44:38.290Z,86
2022-11-28T03:48:03.642Z,86
2022-11-28T03:51:28.707Z,86
2022-11-28T03:54:53.900Z,86
2022-11-28T03:58:19.103Z,86
2022-11-28T04:01:44.346Z,86
2022-11-28T04:05:09.709Z,87
2022-11-28T04:08:34.819Z,87
2022-11-28T04:12:00.026Z,87
2022-11-28T04:15:25.231Z,87
2022-11-28T04:18:50.452Z,88
2022-11-28T04:22:15.792Z,88
2022-11-28T04:25:40.909Z,88
2022-11-28T04:29:06.137Z,88
2022-11-28T04:32:31.334Z,88
2022-11-28T04:35:56.576Z,87
2022-11-28T04:39:21.901Z,87
2022-11-28T04:42:51.401Z,87
2022-11-28T04:46:12.360Z,87
2022-11-28T04:49:37.546Z,88
2022-11-28T04:53:03.504Z,88
2022-11-28T04:56:29.995Z,86
2022-11-28T04:59:57.199Z,85
2022-11-28T05:03:22.419Z,85
2022-11-28T05:06:47.635Z,85
2022-11-28T05:10:12.848Z,85
2022-11-28T05:13:38.178Z,86
2022-11-28T05:17:03.277Z,86
2022-11-28T05:20:28.551Z,86
2022-11-28T05:23:53.751Z,85
2022-11-28T05:27:19.024Z,86
2022-11-28T05:30:44.356Z,86
2022-11-28T05:34:09.498Z,86
2022-11-28T05:37:34.714Z,86
2022-11-28T05:40:59.959Z,86
2022-11-28T05:44:26.966Z,86
2022-11-28T05:47:50.507Z,86
2022-11-28T05:51:15.599Z,86
2022-11-28T05:54:40.795Z,87
2022-11-28T05:58:06.000Z,86
2022-11-28T06:01:31.181Z,86
2022-11-28T06:04:56.593Z,85
2022-11-28T06:08:21.605Z,84
2022-11-28T06:11:46.801Z,85
2022-11-28T06:15:12.031Z,85
2022-11-28T06:18:37.266Z,84
2022-11-28T06:22:02.632Z,83
2022-11-28T06:25:27.703Z,84
2022-11-28T06:28:52.900Z,84
2022-11-28T06:32:21.976Z,85
2022-11-28T06:35:43.327Z,85
2022-11-28T06:39:08.653Z,85
2022-11-28T06:42:33.736Z,85
2022-11-28T06:45:59.041Z,84
2022-11-28T06:49:24.182Z,84
2022-11-28T06:52:49.382Z,84
2022-11-28T06:55:57.004Z,84
2022-11-28T06:59:22.107Z,83
2022-11-28T07:02:47.411Z,84
2022-11-28T07:06:12.567Z,85
2022-11-28T07:09:37.766Z,85
2022-11-28T07:13:05.500Z,86
2022-11-28T07:16:28.221Z,85
2022-11-28T07:19:55.188Z,85
2022-11-28T07:23:19.310Z,86
2022-11-28T07:27:17.726Z,85
2022-11-28T07:30:42.954Z,85
2022-11-28T07:34:08.201Z,85
2022-11-28T07:37:33.412Z,86
2022-11-28T07:40:58.619Z,86
2022-11-28T07:44:24.263Z,86
2022-11-28T07:47:49.500Z,86
2022-11-28T07:51:14.691Z,86
2022-11-28T07:54:39.913Z,86
2022-11-28T07:58:05.159Z,86
2022-11-28T08:01:30.369Z,86
2022-11-28T08:04:55.758Z,87
2022-11-28T08:08:20.865Z,86
2022-11-28T08:11:46.111Z,85
2022-11-28T08:15:11.317Z,84
2022-11-28T08:18:36.566Z,85
2022-11-28T08:22:01.844Z,85
2022-11-28T08:25:27.074Z,83
2022-11-28T08:28:52.288Z,83
2022-11-28T08:32:17.513Z,83
2022-11-28T08:35:42.742Z,83
2022-11-28T08:39:24.710Z,82
2022-11-28T08:42:33.201Z,82
2022-11-28T08:45:58.460Z,82
2022-11-28T08:49:23.706Z,83
2022-11-28T08:52:48.941Z,84
2022-11-28T08:56:14.223Z,84
2022-11-28T08:59:39.448Z,83
2022-11-28T09:03:04.678Z,83
2022-11-28T09:06:29.958Z,82
2022-11-28T09:09:55.201Z,82
2022-11-28T09:13:20.456Z,83
2022-11-28T09:16:45.699Z,83
2022-11-28T09:20:10.902Z,83
2022-11-28T09:23:36.138Z,84
2022-11-28T09:27:01.364Z,84
2022-11-28T09:30:26.604Z,84
2022-11-28T09:33:51.815Z,85
2022-11-28T09:37:17.057Z,85
2022-11-28T09:40:42.263Z,84
2022-11-28T09:44:07.475Z,84
2022-11-28T09:47:32.720Z,83
2022-11-28T09:50:57.932Z,83
2022-11-28T09:54:23.160Z,82
2022-11-28T09:57:48.380Z,81
2022-11-28T10:01:13.582Z,81
2022-11-28T10:04:38.919Z,82
2022-11-28T10:08:04.107Z,81
2022-11-28T10:11:29.257Z,81
2022-11-28T10:14:54.488Z,82
2022-11-28T10:18:19.723Z,81
2022-11-28T10:21:45.012Z,80
2022-11-28T10:25:10.222Z,81
2022-11-28T10:28:35.445Z,82
2022-11-28T10:32:00.662Z,81
2022-11-28T10:35:28.455Z,82
2022-11-28T10:38:51.166Z,79
2022-11-28T10:42:16.389Z,80
2022-11-28T10:45:41.732Z,79
2022-11-28T10:49:06.863Z,79
2022-11-28T10:52:32.116Z,80
2022-11-28T10:55:57.373Z,80
2022-11-28T10:59:22.614Z,81
2022-11-28T11:02:47.855Z,79
2022-11-28T11:06:13.072Z,80
2022-11-28T11:09:38.281Z,80
2022-11-28T11:13:03.519Z,79
2022-11-28T11:16:28.716Z,80
2022-11-28T11:19:53.931Z,79
2022-11-28T11:23:19.631Z,80
2022-11-28T11:26:45.733Z,79
2022-11-28T11:30:11.331Z,79
2022-11-28T11:33:36.518Z,80
2022-11-28T11:37:01.760Z,78
2022-11-28T11:40:26.980Z,79
2022-11-28T11:43:52.217Z,78
2022-11-28T11:47:17.493Z,77
2022-11-28T11:50:42.671Z,79
2022-11-28T11:54:07.899Z,78
2022-11-28T11:57:34.321Z,77
2022-11-28T12:00:58.357Z,78
2022-11-28T12:04:44.196Z,77
2022-11-28T12:07:48.869Z,77
2022-11-28T12:11:14.022Z,77
2022-11-28T12:14:39.252Z,77
2022-11-28T12:18:04.487Z,77
2022-11-28T12:21:29.739Z,77
2022-11-28T12:24:54.931Z,77
2022-11-28T12:28:20.159Z,77
2022-11-28T12:31:45.411Z,77
2022-11-28T12:35:10.589Z,76
2022-11-28T12:38:35.870Z,77
2022-11-28T12:42:01.055Z,76
2022-11-28T12:45:26.262Z,76
2022-11-28T12:48:53.354Z,77
2022-11-28T12:52:16.701Z,75
2022-11-28T12:55:41.974Z,76
2022-11-28T12:59:07.171Z,75
2022-11-28T13:02:32.527Z,76
2022-11-28T13:05:57.636Z,76
2022-11-28T13:09:22.843Z,76
2022-11-28T13:12:48.108Z,76
2022-11-28T13:16:13.387Z,77
2022-11-28T13:19:38.529Z,77
2022-11-28T13:23:03.819Z,77
2022-11-28T13:26:29.195Z,76
2022-11-28T13:29:54.516Z,76
2022-11-28T13:33:19.818Z,75
2022-11-28T13:40:10.380Z,76
2022-11-28T13:43:35.665Z,77
2022-11-28T13:47:01.097Z,77
2022-11-28T13:50:26.338Z,77
2022-11-28T13:53:51.641Z,77
2022-11-28T13:57:16.959Z,78
2022-11-28T14:00:42.356Z,78
2022-11-28T14:04:07.671Z,78
2022-11-28T14:07:33.066Z,78
2022-11-28T14:10:58.283Z,79
2022-11-28T14:14:23.585Z,78
2022-11-28T14:17:48.852Z,79
2022-11-28T14:21:14.191Z,79
2022-11-28T14:24:39.481Z,79
2022-11-28T14:28:04.811Z,79
2022-11-28T14:31:32.935Z,80
2022-11-28T15:05:09.948Z,79
2022-11-28T15:08:35.194Z,79
2022-11-28T15:12:00.511Z,78
2022-11-28T15:15:25.802Z,78
2022-11-28T15:18:51.126Z,79
2022-11-28T15:22:16.487Z,79
2022-11-28T15:25:41.810Z,79
2022-11-28T15:29:07.147Z,79
2022-11-28T15:32:32.446Z,79
2022-11-28T15:35:57.748Z,80
2022-11-28T15:39:23.092Z,79
2022-11-28T15:42:48.375Z,79
2022-11-28T15:46:13.803Z,80
2022-11-28T15:49:39.070Z,80
2022-11-28T15:53:04.415Z,79
2022-11-28T15:56:29.771Z,79
2022-11-28T15:59:55.066Z,79
2022-11-28T16:03:20.353Z,79
2022-11-28T16:06:45.664Z,80
2022-11-28T16:10:10.983Z,79
2022-11-28T16:13:36.371Z,79
2022-11-28T16:17:01.635Z,79
2022-11-28T16:20:26.942Z,79
2022-11-28T16:23:52.250Z,79
2022-11-28T16:27:17.534Z,80
2022-11-28T16:30:42.881Z,80
2022-11-28T16:34:08.157Z,81
2022-11-28T16:37:33.463Z,82
2022-11-28T16:40:58.722Z,82
2022-11-28T16:44:24.089Z,82
2022-11-28T16:47:49.424Z,81
2022-11-28T16:51:14.674Z,81
2022-11-28T16:54:39.924Z,81
2022-11-28T16:58:05.169Z,81
2022-11-28T17:01:30.430Z,82
2022-11-28T17:04:55.888Z,82
2022-11-28T17:08:23.847Z,83
2022-11-28T17:11:46.461Z,82
2022-11-28T17:15:11.791Z,83
2022-11-28T17:18:37.054Z,82
2022-11-28T17:22:02.382Z,82
2022-11-28T17:25:27.644Z,82
2022-11-28T17:28:52.900Z,82
2022-11-28T17:32:18.147Z,82
2022-11-28T17:35:43.428Z,82
2022-11-28T17:39:08.742Z,82
2022-11-28T17:42:34.042Z,83
2022-11-28T17:45:59.454Z,82
2022-11-28T17:49:24.736Z,83
2022-11-28T17:52:50.140Z,83
2022-11-28T17:56:15.549Z,83
2022-11-28T17:59:41.055Z,83
2022-11-28T18:03:06.174Z,82
2022-11-28T18:06:31.599Z,82
2022-11-28T18:09:56.953Z,83
2022-11-28T18:13:22.286Z,83
2022-11-28T18:16:47.658Z,83
2022-11-28T18:20:12.886Z,84
2022-11-28T18:23:38.221Z,83
2022-11-28T18:27:03.624Z,83
2022-11-28T18:30:29.021Z,82
2022-11-28T18:33:58.889Z,82
2022-11-28T18:37:19.593Z,82
2022-11-28T18:40:44.931Z,83
2022-11-28T18:44:10.266Z,83
2022-11-28T18:47:35.590Z,83
2022-11-28T18:51:00.800Z,83
2022-11-28T18:54:26.166Z,83
2022-11-28T18:57:51.446Z,83
2022-11-28T19:01:16.808Z,83
2022-11-28T19:04:42.073Z,82
2022-11-28T19:08:07.405Z,83
2022-11-28T19:11:32.665Z,84
2022-11-28T19:15:01.974Z,84
2022-11-28T19:18:23.320Z,85
2022-11-28T19:21:48.636Z,85
2022-11-28T19:25:13.905Z,85
2022-11-28T19:28:39.181Z,85
2022-11-28T19:32:04.539Z,85
2022-11-28T19:35:29.842Z,85
2022-11-28T19:38:55.177Z,84
2022-11-28T19:42:20.488Z,85
2022-11-28T19:45:45.871Z,85
2022-11-28T19:49:11.135Z,85
2022-11-28T19:52:36.442Z,85
2022-11-28T19:56:01.763Z,85
2022-11-28T19:59:27.082Z,86
2022-11-28T20:02:52.440Z,85
2022-11-28T20:06:17.722Z,86
2022-11-28T20:09:43.475Z,87
2022-11-28T20:13:08.400Z,87
2022-11-28T20:16:33.802Z,88
2022-11-28T20:19:59.072Z,88
2022-11-28T20:23:24.342Z,88
2022-11-28T20:26:49.600Z,88
2022-11-28T20:30:14.984Z,88
2022-11-28T20:33:40.627Z,88
2022-11-28T20:37:05.916Z,88
2022-11-28T20:40:31.808Z,88
2022-11-28T20:43:57.025Z,89
2022-11-28T20:47:22.254Z,89
2022-11-28T20:50:47.454Z,89
2022-11-28T20:54:12.667Z,89
2022-11-28T20:57:37.881Z,89
2022-11-28T21:01:03.167Z,89
2022-11-28T21:04:28.332Z,89
2022-11-28T21:07:53.587Z,89
2022-11-28T21:11:36.852Z,89
2022-11-28T21:14:43.952Z,89
2022-11-28T21:18:09.163Z,89
2022-11-28T21:21:34.397Z,89
2022-11-28T21:24:59.574Z,89
2022-11-28T21:28:24.788Z,89
2022-11-28T21:31:50.067Z,89
2022-11-28T21:35:15.255Z,88
2022-11-28T21:38:40.500Z,88
2022-11-28T21:42:05.695Z,87
2022-11-28T21:45:30.973Z,88
2022-11-28T21:48:56.110Z,89
2022-11-28T21:52:21.326Z,89
2022-11-28T21:55:46.582Z,89
2022-11-28T21:59:11.775Z,89
2022-11-28T22:02:37.059Z,89
2022-11-28T22:06:02.250Z,89
2022-11-28T22:09:27.467Z,89
2022-11-28T22:12:52.713Z,90
2022-11-28T22:16:17.942Z,89
2022-11-28T22:19:43.128Z,90
2022-11-28T22:23:08.387Z,90
2022-11-28T22:26:33.601Z,90
2022-11-28T22:29:58.839Z,90
2022-11-28T22:33:24.026Z,89
2022-11-28T22:36:49.255Z,90
2022-11-28T22:40:14.475Z,90
2022-11-28T22:43:39.702Z,90
2022-11-28T22:47:04.927Z,90
2022-11-28T22:50:30.135Z,90
2022-11-28T22:53:55.403Z,90
2022-11-28T22:57:20.567Z,90
2022-11-28T23:00:45.794Z,90
2022-11-28T23:04:11.034Z,91
2022-11-28T23:07:36.294Z,91
2022-11-28T23:11:01.437Z,91
2022-11-28T23:14:26.654Z,91
2022-11-28T23:17:51.879Z,91
2022-11-28T23:21:17.157Z,91
2022-11-28T23:24:42.516Z,91
2022-11-28T23:28:07.560Z,91
2022-11-28T23:31:32.827Z,91
2022-11-28T23:34:57.976Z,91
2022-11-28T23:38:23.268Z,91
2022-11-28T23:41:48.404Z,91
2022-11-28T23:45:13.634Z,91
2022-11-28T23:48:38.865Z,91
2022-11-28T23:52:04.064Z,91
2022-11-28T23:55:29.310Z,91
2022-11-28T23:58:54.513Z,90
